Time;durP1;ratioP1;P1;durP2;ratioP2;P2;SDS_P1;SDS_P2;PMS_P1;PMS_P2;Temp;Humidity;BMP_temperature;BMP_pressure;BME280_temperature;BME280_humidity;BME280_pressure;Samples;Min_cycle;Max_cycle;Signal;HPM_P1;HPM_P2
2022/03/17 00:00:27;;;;;;;33.65;17.80;;;;;;;14.38;60.95;101878.09;4953261;28;20074;-55
2022/03/17 00:02:53;;;;;;;31.52;18.13;;;;;;;14.46;60.72;101878.19;4960972;28;20042;-53
2022/03/17 00:05:18;;;;;;;31.27;18.73;;;;;;;14.32;61.37;101871.84;4958061;28;20647;-50
2022/03/17 00:07:44;;;;;;;30.58;18.77;;;;;;;14.30;61.55;101863.97;4952552;28;20132;-50
2022/03/17 00:10:14;;;;;;;32.08;18.40;;;;;;;14.39;60.98;101879.88;4963371;28;20042;-54
2022/03/17 00:12:40;;;;;;;28.75;18.08;;;;;;;14.34;61.48;101878.88;4957174;28;21384;-53
2022/03/17 00:15:06;;;;;;;31.65;18.48;;;;;;;14.34;61.43;101884.13;4962216;28;20046;-55
2022/03/17 00:17:31;;;;;;;33.00;19.42;;;;;;;14.36;61.55;101878.91;4956829;28;20046;-51
2022/03/17 00:19:56;;;;;;;35.83;20.30;;;;;;;14.32;61.80;101888.47;4960702;28;20057;-52
2022/03/17 00:22:22;;;;;;;36.63;18.70;;;;;;;14.32;61.78;101883.22;4941349;28;20050;-55
2022/03/17 00:24:48;;;;;;;33.13;18.85;;;;;;;14.33;61.93;101884.13;4961309;28;20066;-53
2022/03/17 00:27:13;;;;;;;33.35;19.08;;;;;;;14.33;62.01;101882.38;4960108;28;20085;-54
2022/03/17 00:29:39;;;;;;;32.40;18.60;;;;;;;14.32;62.34;101893.72;4966839;28;20053;-51
2022/03/17 00:32:07;;;;;;;33.78;19.52;;;;;;;14.32;62.46;101880.63;4958196;28;20105;-54
2022/03/17 00:34:34;;;;;;;37.40;20.27;;;;;;;14.38;62.32;101877.22;4935990;28;20057;-51
2022/03/17 00:36:59;;;;;;;32.95;19.75;;;;;;;14.36;62.55;101882.41;4960089;28;20046;-54
2022/03/17 00:39:25;;;;;;;35.05;21.05;;;;;;;14.38;62.91;101883.34;4960527;28;20052;-53
2022/03/17 00:41:51;;;;;;;34.63;20.52;;;;;;;14.40;62.78;101883.34;4950256;28;20039;-52
2022/03/17 00:44:16;;;;;;;37.78;20.50;;;;;;;14.37;63.16;101889.47;4959149;28;20077;-54
2022/03/17 00:46:42;;;;;;;35.95;20.48;;;;;;;14.37;63.51;101885.91;4955120;28;20085;-53
2022/03/17 00:49:07;;;;;;;37.78;20.58;;;;;;;14.33;64.00;101892.88;4962018;28;20053;-53
2022/03/17 00:51:34;;;;;;;35.63;20.60;;;;;;;14.35;64.19;101891.13;4963433;28;20533;-55
2022/03/17 00:53:59;;;;;;;34.70;21.27;;;;;;;14.27;64.84;101899.78;4950252;28;20338;-54
2022/03/17 00:56:24;;;;;;;37.92;21.73;;;;;;;14.25;65.05;101906.72;4957406;28;20042;-50
2022/03/17 00:58:50;;;;;;;37.75;22.15;;;;;;;14.19;65.61;101911.03;4950850;28;20101;-51
2022/03/17 01:01:16;;;;;;;37.38;21.83;;;;;;;14.21;65.79;101905.78;4956187;28;20121;-50
2022/03/17 01:03:43;;;;;;;38.55;22.38;;;;;;;14.12;66.39;101896.06;4953680;28;20412;-54
2022/03/17 01:06:08;;;;;;;42.92;23.27;;;;;;;14.09;66.75;101896.00;4956760;28;20050;-51
2022/03/17 01:08:34;;;;;;;44.67;23.75;;;;;;;14.00;67.52;101898.47;4935161;28;20715;-52
2022/03/17 01:10:59;;;;;;;45.25;23.85;;;;;;;13.96;67.96;101898.41;4962245;28;20504;-51
2022/03/17 01:13:24;;;;;;;45.63;24.88;;;;;;;13.90;68.75;101903.56;4962752;28;20671;-51
2022/03/17 01:15:50;;;;;;;47.47;25.15;;;;;;;13.89;68.63;101909.66;4961952;28;20148;-51
2022/03/17 01:18:15;;;;;;;48.08;25.58;;;;;;;13.91;68.92;101913.16;4952145;28;20046;-51
2022/03/17 01:20:41;;;;;;;50.42;27.38;;;;;;;13.87;69.56;101907.00;4950235;28;20109;-53
2022/03/17 01:23:07;;;;;;;49.15;26.00;;;;;;;13.88;69.59;101913.13;4960338;28;20156;-51
2022/03/17 01:25:33;;;;;;;49.33;27.88;;;;;;;13.88;69.92;101902.66;4960659;28;20338;-51
2022/03/17 01:27:58;;;;;;;51.35;27.15;;;;;;;13.90;70.03;101914.94;4950831;28;20031;-50
2022/03/17 01:30:24;;;;;;;54.10;27.65;;;;;;;13.91;70.30;101914.06;4953014;28;20164;-50
2022/03/17 01:32:49;;;;;;;53.15;27.77;;;;;;;13.92;70.33;101928.03;4959995;28;20331;-51
2022/03/17 01:35:14;;;;;;;51.80;28.15;;;;;;;13.93;70.34;101928.06;4969740;28;20073;-51
2022/03/17 01:37:40;;;;;;;54.75;27.58;;;;;;;13.88;70.68;101937.59;4958990;28;20105;-53
2022/03/17 01:40:07;;;;;;;50.95;27.50;;;;;;;13.94;70.40;101945.56;4957300;28;20562;-54
2022/03/17 01:42:32;;;;;;;50.38;26.45;;;;;;;13.82;70.76;101942.75;4946580;28;20530;-53
2022/03/17 01:44:58;;;;;;;46.75;25.90;;;;;;;13.91;70.42;101955.09;4954002;28;20034;-51
2022/03/17 01:47:26;;;;;;;48.40;25.10;;;;;;;13.97;70.01;101963.06;4954819;28;20046;-50
2022/03/17 01:49:53;;;;;;;43.95;23.13;;;;;;;13.88;70.10;101973.44;4956436;28;20345;-50
2022/03/17 01:52:19;;;;;;;30.42;18.52;;;;;;;13.80;69.72;101979.41;4947216;28;20046;-56
2022/03/17 01:54:45;;;;;;;26.63;15.60;;;;;;;13.65;69.29;101987.00;4957430;28;20119;-53
2022/03/17 01:57:11;;;;;;;20.75;13.30;;;;;;;13.49;69.34;101989.28;4958138;28;20133;-52
2022/03/17 01:59:38;;;;;;;18.85;10.55;;;;;;;13.31;68.74;102024.75;4959357;28;20046;-50
2022/03/17 02:02:09;;;;;;;16.60;9.20;;;;;;;13.03;68.01;102032.84;4960905;28;20046;-52
2022/03/17 02:04:35;;;;;;;11.80;7.00;;;;;;;12.68;67.74;102012.88;4948790;28;20050;-53
2022/03/17 02:07:05;;;;;;;14.93;6.97;;;;;;;12.51;68.00;102028.16;4954538;28;20523;-56
2022/03/17 02:09:32;;;;;;;12.73;6.30;;;;;;;12.35;67.95;102031.25;4958438;28;20313;-52
2022/03/17 02:14:51;;;;;;;12.98;6.40;;;;;;;11.95;68.91;102035.50;4957402;28;20053;-54
2022/03/17 02:17:17;;;;;;;15.38;6.78;;;;;;;11.92;68.81;102051.06;4963833;28;20048;-53
2022/03/17 02:19:42;;;;;;;13.60;7.28;;;;;;;11.85;69.12;102053.47;4958082;28;20165;-54
2022/03/17 02:22:11;;;;;;;12.98;7.32;;;;;;;11.75;69.29;102061.09;4963076;28;20039;-50
2022/03/17 02:27:21;;;;;;;14.13;7.23;;;;;;;11.83;69.01;102060.41;4961390;28;20944;-52
2022/03/17 02:29:46;;;;;;;13.25;6.95;;;;;;;11.67;69.02;102062.56;4964074;28;20085;-54
2022/03/17 02:32:12;;;;;;;12.55;7.50;;;;;;;11.70;69.29;102067.88;4960712;28;20129;-53
2022/03/17 02:34:38;;;;;;;17.25;7.90;;;;;;;11.73;69.24;102074.91;4953665;28;20121;-53
2022/03/17 02:37:04;;;;;;;15.68;8.68;;;;;;;11.66;69.20;102086.91;4963568;28;20247;-54
2022/03/17 02:39:29;;;;;;;16.05;8.80;;;;;;;11.71;69.63;102092.28;4955234;28;20045;-53
2022/03/17 02:41:55;;;;;;;18.58;9.80;;;;;;;11.57;70.33;102085.78;4958998;28;20049;-51
2022/03/17 02:44:21;;;;;;;20.00;11.05;;;;;;;11.58;69.61;102098.88;4952922;28;20108;-54
2022/03/17 02:46:46;;;;;;;26.17;12.10;;;;;;;11.59;69.70;102112.78;4963288;28;20037;-54
2022/03/17 02:49:15;;;;;;;23.08;12.07;;;;;;;11.62;69.84;102108.56;4962826;28;20266;-52
2022/03/17 02:51:41;;;;;;;26.40;12.73;;;;;;;11.65;69.79;102107.75;4956290;28;20054;-51
2022/03/17 02:54:06;;;;;;;23.70;12.20;;;;;;;11.60;69.39;102107.63;4958647;28;20224;-54
2022/03/17 02:56:33;;;;;;;25.05;12.27;;;;;;;11.62;69.22;102118.13;4956090;28;20072;-53
2022/03/17 02:58:58;;;;;;;24.25;12.13;;;;;;;11.51;69.27;102130.00;4959391;28;20069;-54
2022/03/17 03:01:24;;;;;;;26.25;12.45;;;;;;;11.52;69.34;102129.16;4962955;28;20705;-51
2022/03/17 03:03:49;;;;;;;26.58;12.85;;;;;;;11.52;69.11;102150.03;4959241;28;20081;-51
2022/03/17 03:06:15;;;;;;;25.42;12.82;;;;;;;11.58;68.83;102153.72;4961226;28;20096;-53
2022/03/17 03:08:40;;;;;;;25.15;12.95;;;;;;;11.56;68.72;102158.00;4963111;28;20769;-53
2022/03/17 03:11:06;;;;;;;25.48;13.35;;;;;;;11.58;68.53;102158.94;4964232;28;20456;-50
2022/03/17 03:13:31;;;;;;;28.63;13.73;;;;;;;11.45;68.59;102172.47;4965167;28;20045;-52
2022/03/17 03:15:57;;;;;;;22.38;11.60;;;;;;;11.35;68.69;102173.91;4967219;28;20042;-53
2022/03/17 03:18:22;;;;;;;26.02;11.88;;;;;;;11.50;68.45;102186.56;4954689;28;20038;-52
2022/03/17 03:20:47;;;;;;;28.38;11.00;;;;;;;11.34;68.39;102190.41;4964856;28;20564;-54
2022/03/17 03:23:13;;;;;;;26.05;8.95;;;;;;;11.44;67.94;102202.03;4964718;28;20044;-53
2022/03/17 03:25:38;;;;;;;21.15;8.77;;;;;;;11.45;67.60;102215.97;4955365;28;20228;-56
2022/03/17 03:28:06;;;;;;;19.50;7.90;;;;;;;11.47;67.82;102214.28;4959246;28;20348;-51
2022/03/17 03:30:31;;;;;;;19.25;5.47;;;;;;;11.32;67.58;102222.53;4952598;28;20189;-54
2022/03/17 03:32:56;;;;;;;20.92;5.10;;;;;;;11.34;66.96;102226.09;4961041;28;20528;-53
2022/03/17 03:38:06;;;;;;;15.30;3.60;;;;;;;11.11;66.66;102242.72;4957556;28;20595;-56
2022/03/17 03:40:31;;;;;;;15.43;3.75;;;;;;;11.24;66.63;102251.00;4959936;28;20305;-56
2022/03/17 03:42:56;;;;;;;14.20;3.53;;;;;;;11.21;66.32;102257.88;4963002;28;20061;-53
2022/03/17 03:45:22;;;;;;;14.15;3.33;;;;;;;11.25;65.92;102258.00;4949084;28;20065;-53
2022/03/17 03:47:47;;;;;;;18.15;3.33;;;;;;;11.21;66.11;102269.19;4960523;28;20049;-54
2022/03/17 03:50:13;;;;;;;15.68;3.10;;;;;;;11.21;65.66;102282.25;4959003;28;20334;-53
2022/03/17 03:52:39;;;;;;;16.40;2.90;;;;;;;11.11;65.72;102276.66;4954539;28;20433;-55
2022/03/17 03:55:04;;;;;;;13.38;2.83;;;;;;;11.06;65.52;102286.94;4951929;28;20165;-55
2022/03/17 03:57:30;;;;;;;14.10;2.80;;;;;;;11.14;65.69;102295.03;4946839;28;20540;-55
2022/03/17 03:59:55;;;;;;;11.55;2.55;;;;;;;11.04;65.46;102299.03;4956569;28;20445;-52
2022/03/17 04:02:20;;;;;;;13.27;2.47;;;;;;;11.12;65.42;102301.91;4954010;28;20078;-52
2022/03/17 04:04:46;;;;;;;16.83;2.53;;;;;;;11.07;65.32;102324.38;4961084;28;20042;-54
2022/03/17 04:07:11;;;;;;;18.90;3.08;;;;;;;11.00;66.10;102318.03;4963524;28;20469;-51
2022/03/17 04:09:40;;;;;;;12.48;2.55;;;;;;;10.90;65.71;102321.19;4962138;28;20049;-56
2022/03/17 04:12:08;;;;;;;14.73;2.65;;;;;;;11.00;65.19;102341.53;4962695;28;20045;-55
2022/03/17 04:14:33;;;;;;;14.00;2.38;;;;;;;11.02;65.14;102339.00;4954785;28;20100;-55
2022/03/17 04:17:00;;;;;;;15.80;2.78;;;;;;;10.92;64.88;102342.97;4958062;28;20048;-51
2022/03/17 04:19:26;;;;;;;11.35;1.55;;;;;;;11.01;64.26;102348.53;4955582;28;20376;-56
2022/03/17 04:21:52;;;;;;;10.32;1.73;;;;;;;10.94;64.25;102359.59;4962742;28;20057;-55
2022/03/17 04:24:18;;;;;;;12.68;1.80;;;;;;;11.03;64.32;102366.88;4948763;28;20042;-56
2022/03/17 04:26:44;;;;;;;9.90;1.60;;;;;;;11.05;64.07;102381.72;4939720;28;20070;-56
2022/03/17 04:29:10;;;;;;;18.27;1.77;;;;;;;11.04;64.18;102379.09;4959580;28;20057;-54
2022/03/17 04:31:40;;;;;;;13.45;1.60;;;;;;;11.00;64.57;102388.50;4962952;28;20042;-54
2022/03/17 04:34:06;;;;;;;13.60;1.95;;;;;;;10.82;64.73;102393.06;4958944;28;20592;-55
2022/03/17 04:36:32;;;;;;;11.60;1.85;;;;;;;10.92;64.44;102398.66;4950496;28;20046;-55
2022/03/17 04:38:59;;;;;;;13.02;1.67;;;;;;;10.92;63.97;102411.72;4959252;28;20277;-54
2022/03/17 04:41:24;;;;;;;7.70;1.60;;;;;;;10.90;64.47;102418.63;4962178;28;20056;-54
2022/03/17 04:43:49;;;;;;;15.02;1.58;;;;;;;10.89;64.20;102419.44;4962416;28;20448;-55
2022/03/17 04:46:20;;;;;;;7.72;1.48;;;;;;;10.86;64.57;102434.06;4959740;28;20467;-54
2022/03/17 04:48:45;;;;;;;13.63;1.88;;;;;;;10.90;63.86;102442.09;4957786;28;20291;-53
2022/03/17 04:51:10;;;;;;;8.27;1.70;;;;;;;10.76;63.97;102452.84;4950163;28;20125;-55
2022/03/17 04:53:36;;;;;;;14.25;2.20;;;;;;;10.80;63.61;102452.13;4949373;28;20803;-55
2022/03/17 04:56:11;;;;;;;12.45;1.83;;;;;;;10.81;64.39;102464.34;4961034;28;20740;-50
2022/03/17 04:58:41;;;;;;;12.68;1.73;;;;;;;10.82;63.91;102460.91;4932460;28;20054;-56
2022/03/17 05:01:08;;;;;;;14.23;1.83;;;;;;;10.72;63.92;102474.44;4961535;28;20520;-51
2022/03/17 05:03:34;;;;;;;12.77;1.80;;;;;;;10.75;63.72;102478.03;4958254;28;20273;-56
2022/03/17 05:06:00;;;;;;;13.75;1.88;;;;;;;10.79;63.34;102495.59;4950453;28;20418;-54
2022/03/17 05:08:26;;;;;;;12.00;1.60;;;;;;;10.81;63.74;102495.63;4950666;28;20035;-53
2022/03/17 05:10:55;;;;;;;9.93;1.55;;;;;;;10.81;63.19;102503.47;4954247;28;20050;-52
2022/03/17 05:13:22;;;;;;;17.77;1.80;;;;;;;10.68;63.49;102514.25;4963415;28;20446;-52
2022/03/17 05:15:48;;;;;;;9.25;1.58;;;;;;;10.77;62.80;102517.22;4951860;28;20038;-52
2022/03/17 05:18:14;;;;;;;10.82;1.85;;;;;;;10.72;63.26;102524.88;4952529;28;20057;-52
2022/03/17 05:20:43;;;;;;;12.00;1.73;;;;;;;10.70;63.69;102520.44;4952146;28;21856;-52
2022/03/17 05:23:11;;;;;;;13.73;1.67;;;;;;;10.68;63.83;102535.13;4950689;28;20129;-53
2022/03/17 05:25:38;;;;;;;8.15;1.42;;;;;;;10.60;64.16;102545.28;4963166;28;20153;-54
2022/03/17 05:28:10;;;;;;;9.00;1.38;;;;;;;10.63;63.94;102549.69;4920476;28;20043;-52
2022/03/17 05:30:37;;;;;;;13.35;1.92;;;;;;;10.70;64.24;102552.63;4953077;28;20046;-51
2022/03/17 05:33:03;;;;;;;12.77;2.00;;;;;;;10.71;63.89;102564.84;4957437;28;20505;-52
2022/03/17 05:35:29;;;;;;;15.85;1.77;;;;;;;10.68;64.24;102564.69;4959229;28;20585;-53
2022/03/17 05:37:54;;;;;;;16.42;1.85;;;;;;;10.61;64.24;102570.53;4966604;28;20042;-51
2022/03/17 05:40:21;;;;;;;10.90;1.40;;;;;;;10.56;63.95;102572.94;4950879;28;20157;-52
2022/03/17 05:42:55;;;;;;;13.25;1.67;;;;;;;10.58;64.30;102583.44;4962588;28;20607;-53
2022/03/17 05:45:22;;;;;;;15.02;2.10;;;;;;;10.66;64.05;102583.75;4957366;28;20120;-57
2022/03/17 05:47:51;;;;;;;12.30;1.80;;;;;;;10.71;63.74;102593.53;4957967;28;20054;-54
2022/03/17 05:50:20;;;;;;;14.68;2.03;;;;;;;10.51;64.45;102597.03;4954920;28;20042;-53
2022/03/17 05:52:47;;;;;;;15.23;2.17;;;;;;;10.70;63.55;102603.91;4952034;28;20185;-54
2022/03/17 05:55:16;;;;;;;12.80;2.08;;;;;;;10.74;63.62;102613.63;4957295;28;20050;-54
2022/03/17 05:57:45;;;;;;;13.35;1.92;;;;;;;10.69;63.85;102618.66;4960799;28;20058;-49
2022/03/17 06:00:13;;;;;;;19.95;2.28;;;;;;;10.66;63.94;102620.25;4957147;28;20046;-51
2022/03/17 06:02:39;;;;;;;17.02;2.00;;;;;;;10.67;63.36;102627.25;4955923;28;20097;-53
2022/03/17 06:05:06;;;;;;;17.10;2.15;;;;;;;10.60;63.27;102636.56;4966401;28;20105;-54
2022/03/17 06:07:36;;;;;;;15.13;2.25;;;;;;;10.76;62.79;102638.06;4938999;28;20465;-52
2022/03/17 06:10:03;;;;;;;15.90;2.05;;;;;;;10.65;62.70;102647.16;4956565;28;20153;-56
2022/03/17 06:12:29;;;;;;;16.92;2.10;;;;;;;10.74;62.79;102651.03;4949837;28;20462;-53
2022/03/17 06:14:54;;;;;;;12.55;1.90;;;;;;;10.69;62.64;102644.75;4963816;28;20050;-51
2022/03/17 06:17:23;;;;;;;11.52;1.88;;;;;;;10.73;62.57;102664.94;4961640;28;20522;-52
2022/03/17 06:19:48;;;;;;;9.88;1.58;;;;;;;10.72;62.52;102663.16;4960574;28;20038;-51
2022/03/17 06:22:13;;;;;;;11.40;2.03;;;;;;;10.76;62.33;102670.25;4964080;28;20117;-50
2022/03/17 06:24:39;;;;;;;8.15;1.67;;;;;;;10.72;62.32;102677.91;4953619;28;20408;-54
2022/03/17 06:27:04;;;;;;;14.00;1.60;;;;;;;10.56;62.82;102690.28;4962563;28;20053;-52
2022/03/17 06:29:29;;;;;;;10.48;1.75;;;;;;;10.57;62.98;102699.00;4951962;28;20039;-53
2022/03/17 06:31:55;;;;;;;10.82;1.60;;;;;;;10.69;62.42;102699.53;4959461;28;20105;-53
2022/03/17 06:34:20;;;;;;;9.57;1.52;;;;;;;10.58;63.04;102714.72;4956205;28;20462;-52
2022/03/17 06:36:46;;;;;;;12.15;1.63;;;;;;;10.56;62.67;102711.16;4965498;28;20054;-53
2022/03/17 06:39:11;;;;;;;15.57;1.85;;;;;;;10.48;61.72;102714.28;4965782;28;20045;-52
2022/03/17 06:41:36;;;;;;;12.90;1.50;;;;;;;10.47;62.68;102716.00;4960926;28;20076;-50
2022/03/17 06:44:02;;;;;;;9.05;1.48;;;;;;;10.48;62.19;102724.72;4956985;28;20042;-54
2022/03/17 06:46:29;;;;;;;13.48;1.40;;;;;;;10.58;61.86;102730.38;4950402;28;20494;-54
2022/03/17 06:48:55;;;;;;;12.38;1.92;;;;;;;10.51;61.91;102740.47;4949071;28;20053;-54
2022/03/17 06:51:20;;;;;;;15.02;2.00;;;;;;;10.50;62.08;102744.78;4956246;28;20129;-53
2022/03/17 06:53:45;;;;;;;10.32;1.58;;;;;;;10.64;62.06;102747.09;4954676;28;20129;-50
2022/03/17 06:56:11;;;;;;;12.45;1.70;;;;;;;10.63;62.26;102751.44;4961276;28;20309;-52
2022/03/17 06:58:37;;;;;;;15.65;1.60;;;;;;;10.69;61.71;102756.00;4957006;28;20047;-55
2022/03/17 07:01:02;;;;;;;8.88;1.50;;;;;;;10.73;61.66;102763.16;4962902;28;20042;-51
2022/03/17 07:03:27;;;;;;;9.45;1.90;;;;;;;10.75;61.50;102772.81;4958512;28;20046;-50
2022/03/17 07:05:53;;;;;;;11.43;1.90;;;;;;;10.79;61.30;102773.88;4955044;28;20046;-51
2022/03/17 07:08:18;;;;;;;12.10;1.98;;;;;;;10.86;61.08;102775.88;4959344;28;20093;-52
2022/03/17 07:10:43;;;;;;;16.50;1.95;;;;;;;10.87;60.15;102773.34;4951668;28;20600;-52
2022/03/17 07:13:09;;;;;;;10.82;1.90;;;;;;;10.94;59.83;102782.31;4965738;28;20711;-54
2022/03/17 07:15:34;;;;;;;12.00;1.80;;;;;;;10.94;58.88;102785.81;4956565;28;20038;-49
2022/03/17 07:18:00;;;;;;;17.02;1.88;;;;;;;10.96;58.77;102786.78;4957525;28;20049;-54
2022/03/17 07:20:25;;;;;;;11.13;1.52;;;;;;;10.99;58.34;102799.06;4952093;28;20740;-52
2022/03/17 07:22:51;;;;;;;10.32;1.75;;;;;;;10.97;58.43;102806.84;4961076;28;20511;-52
2022/03/17 07:25:19;;;;;;;10.18;1.60;;;;;;;10.97;59.19;102814.69;4961274;28;20105;-55
2022/03/17 07:27:46;;;;;;;7.28;1.50;;;;;;;10.89;59.41;102808.22;4962101;28;20065;-55
2022/03/17 07:30:18;;;;;;;11.20;1.90;;;;;;;10.93;59.08;102817.97;4947476;28;20054;-51
2022/03/17 07:32:48;;;;;;;13.95;1.65;;;;;;;10.84;60.11;102817.59;4954432;28;20654;-54
2022/03/17 07:35:14;;;;;;;12.63;2.13;;;;;;;10.96;59.27;102825.94;4958377;28;20465;-54
2022/03/17 07:37:41;;;;;;;10.90;2.20;;;;;;;10.81;60.02;102830.47;4961387;28;20446;-52
2022/03/17 07:40:07;;;;;;;10.30;1.90;;;;;;;10.75;60.76;102832.81;4956912;28;20141;-52
2022/03/17 07:42:32;;;;;;;8.18;1.90;;;;;;;10.87;59.62;102845.50;4954998;28;20297;-51
2022/03/17 07:44:58;;;;;;;10.25;1.85;;;;;;;10.78;58.83;102863.38;4955877;28;20157;-54
2022/03/17 07:47:23;;;;;;;6.35;1.50;;;;;;;10.79;57.90;102855.63;4960949;28;20061;-55
2022/03/17 07:49:50;;;;;;;9.15;1.77;;;;;;;10.76;58.65;102855.47;4961813;28;20046;-50
2022/03/17 07:52:15;;;;;;;12.27;1.60;;;;;;;10.77;58.39;102866.81;4962327;28;20089;-53
2022/03/17 07:54:40;;;;;;;11.27;1.65;;;;;;;10.82;58.96;102865.28;4931948;28;20088;-54
2022/03/17 07:57:06;;;;;;;10.95;1.95;;;;;;;10.76;58.67;102875.47;4959924;28;20157;-53
2022/03/17 07:59:33;;;;;;;9.63;1.60;;;;;;;10.88;59.27;102883.81;4951180;28;20716;-50
2022/03/17 08:01:58;;;;;;;10.77;1.80;;;;;;;10.94;58.70;102878.88;4964045;28;20039;-52
2022/03/17 08:04:24;;;;;;;7.65;1.73;;;;;;;11.18;58.60;102894.72;4955253;28;20061;-53
2022/03/17 08:06:53;;;;;;;12.02;1.77;;;;;;;11.37;58.58;102899.88;4966178;28;20117;-51
2022/03/17 08:09:19;;;;;;;7.63;1.50;;;;;;;11.55;57.84;102900.66;4955892;28;20038;-51
2022/03/17 08:11:48;;;;;;;9.05;1.60;;;;;;;11.71;56.52;102915.25;4963469;28;20066;-53
2022/03/17 08:14:16;;;;;;;7.15;1.60;;;;;;;11.68;54.92;102921.25;4959197;28;20030;-54
2022/03/17 08:16:44;;;;;;;8.30;1.80;;;;;;;11.82;54.49;102920.97;4958941;28;20126;-51
2022/03/17 08:19:10;;;;;;;9.43;1.55;;;;;;;12.02;54.77;102923.53;4964680;28;20050;-51
2022/03/17 08:21:36;;;;;;;8.05;1.58;;;;;;;12.12;54.18;102933.53;4966075;28;20366;-54
2022/03/17 08:24:01;;;;;;;8.60;1.80;;;;;;;12.18;53.26;102928.56;4965064;28;20206;-51
2022/03/17 08:26:26;;;;;;;6.03;1.77;;;;;;;12.30;53.37;102945.56;4951132;28;20081;-53
2022/03/17 08:28:52;;;;;;;7.68;1.88;;;;;;;12.54;53.52;102944.78;4959975;28;20577;-50
2022/03/17 08:31:17;;;;;;;9.77;1.80;;;;;;;12.86;52.59;102950.34;4959048;28;20939;-52
2022/03/17 08:33:42;;;;;;;5.75;1.90;;;;;;;13.09;52.27;102959.03;4960045;28;20034;-55
2022/03/17 08:36:08;;;;;;;6.97;1.55;;;;;;;13.31;52.19;102959.88;4957438;28;20445;-50
2022/03/17 08:38:33;;;;;;;9.13;2.15;;;;;;;13.21;50.58;102964.72;4951001;28;20844;-50
2022/03/17 08:40:59;;;;;;;5.50;1.70;;;;;;;13.36;50.58;102968.78;4955345;28;20481;-52
2022/03/17 08:43:24;;;;;;;7.70;1.77;;;;;;;13.27;50.47;102981.56;4958839;28;20046;-53
2022/03/17 08:51:26;;;;;;;8.65;1.90;;;;;;;13.70;50.65;102988.31;4962110;28;20053;-54
2022/03/17 08:53:52;;;;;;;9.68;2.42;;;;;;;13.74;50.78;102998.03;4964253;28;20486;-52
2022/03/17 08:56:18;;;;;;;8.95;2.65;;;;;;;13.81;49.49;103005.28;4960955;28;20129;-51
2022/03/17 08:58:43;;;;;;;7.95;2.50;;;;;;;13.80;50.40;103003.50;4948084;28;20187;-52
2022/03/17 09:01:08;;;;;;;11.45;2.65;;;;;;;13.59;50.11;103005.41;4956716;28;20053;-50
2022/03/17 09:03:34;;;;;;;10.98;2.70;;;;;;;13.81;50.49;103000.94;4960204;28;20054;-50
2022/03/17 09:06:00;;;;;;;12.85;2.70;;;;;;;13.80;50.30;103017.50;4955065;28;20057;-53
2022/03/17 09:08:26;;;;;;;12.13;2.70;;;;;;;14.13;50.54;103024.72;4948643;28;20457;-54
2022/03/17 09:10:52;;;;;;;10.65;2.58;;;;;;;14.37;49.77;103015.06;4963881;28;20405;-51
2022/03/17 09:13:18;;;;;;;11.85;2.78;;;;;;;14.43;49.47;103028.38;4958537;28;20062;-53
2022/03/17 09:15:43;;;;;;;9.38;2.85;;;;;;;14.13;49.76;103036.09;4956972;28;20513;-54
2022/03/17 09:18:10;;;;;;;12.30;3.10;;;;;;;13.85;49.09;103037.72;4949891;28;20448;-53
2022/03/17 09:20:37;;;;;;;11.07;3.42;;;;;;;13.85;49.32;103038.63;4950248;28;20149;-53
2022/03/17 09:23:03;;;;;;;9.15;2.88;;;;;;;14.09;49.88;103042.06;4963946;28;20046;-50
2022/03/17 09:25:31;;;;;;;7.53;2.70;;;;;;;14.34;49.33;103049.00;4957253;28;20112;-52
2022/03/17 09:27:56;;;;;;;9.15;2.80;;;;;;;14.48;48.56;103046.88;4960475;28;20469;-54
2022/03/17 09:30:23;;;;;;;12.07;2.92;;;;;;;14.42;48.71;103057.19;4947384;28;20228;-51
2022/03/17 09:32:51;;;;;;;11.10;2.78;;;;;;;14.50;47.92;103061.84;4958757;28;20060;-52
2022/03/17 09:35:17;;;;;;;9.85;2.63;;;;;;;14.54;47.63;103070.69;4954498;28;20110;-55
2022/03/17 09:37:43;;;;;;;8.90;2.80;;;;;;;14.59;47.65;103083.13;4959630;28;20399;-53
2022/03/17 09:40:09;;;;;;;9.38;2.90;;;;;;;14.56;48.11;103093.53;4965478;28;20474;-53
2022/03/17 09:42:36;;;;;;;10.80;3.20;;;;;;;14.87;46.81;103087.53;4952292;28;20354;-52
2022/03/17 09:45:02;;;;;;;8.80;2.95;;;;;;;14.68;47.20;103090.41;4958976;28;20429;-50
2022/03/17 09:47:29;;;;;;;9.63;3.28;;;;;;;14.58;47.57;103101.44;4963953;28;20476;-51
2022/03/17 09:49:56;;;;;;;10.85;2.97;;;;;;;14.87;47.49;103102.38;4966490;28;20117;-53
2022/03/17 09:52:22;;;;;;;10.32;3.33;;;;;;;15.06;46.39;103111.72;4952963;28;20565;-52
2022/03/17 09:54:49;;;;;;;12.98;3.00;;;;;;;15.01;45.99;103122.06;4958377;28;20161;-51
2022/03/17 09:57:16;;;;;;;10.50;3.03;;;;;;;14.91;45.74;103120.91;4964896;28;20618;-53
2022/03/17 09:59:48;;;;;;;7.82;2.72;;;;;;;15.16;45.29;103122.56;4958844;28;20042;-53
2022/03/17 10:02:16;;;;;;;9.23;3.25;;;;;;;15.58;45.66;103122.94;4952635;28;20515;-50
2022/03/17 10:04:47;;;;;;;12.25;3.28;;;;;;;15.82;46.16;103123.63;4933749;28;20446;-53
2022/03/17 10:07:14;;;;;;;8.95;3.58;;;;;;;15.98;45.04;103129.34;4963550;28;20057;-53
2022/03/17 10:09:39;;;;;;;13.65;3.55;;;;;;;15.58;45.01;103141.34;4958046;28;20509;-50
2022/03/17 10:12:09;;;;;;;16.40;3.70;;;;;;;15.34;46.13;103138.88;4958125;28;20056;-55
2022/03/17 10:14:45;;;;;;;8.52;3.30;;;;;;;15.09;45.39;103151.22;4952063;28;20167;-53
2022/03/17 10:17:30;;;;;;;10.38;3.35;;;;;;;14.72;45.94;103157.03;4959724;28;20056;-50
2022/03/17 10:20:16;;;;;;;10.90;3.50;;;;;;;14.53;48.00;103164.28;4958756;28;20419;-53
2022/03/17 10:22:50;;;;;;;7.88;3.20;;;;;;;14.70;46.40;103159.59;4953935;28;20054;-53
2022/03/17 10:25:27;;;;;;;6.70;3.22;;;;;;;15.01;45.87;103174.59;4964324;28;20093;-51
2022/03/17 10:27:56;;;;;;;11.65;3.22;;;;;;;15.03;45.78;103176.44;4958530;28;20054;-53
2022/03/17 10:30:35;;;;;;;8.43;3.10;;;;;;;15.24;45.78;103186.75;4949260;28;20465;-57
2022/03/17 10:33:11;;;;;;;10.32;3.00;;;;;;;15.24;47.11;103196.38;4956309;28;20067;-57
2022/03/17 10:35:38;;;;;;;9.25;3.13;;;;;;;15.18;45.71;103204.97;4967276;28;20122;-50
2022/03/17 10:38:11;;;;;;;6.93;3.17;;;;;;;15.05;45.24;103208.03;4953641;28;20092;-54
2022/03/17 10:40:37;;;;;;;8.53;3.03;;;;;;;14.96;45.23;103216.50;4959204;28;20997;-54
2022/03/17 10:43:23;;;;;;;9.32;2.97;;;;;;;15.27;45.30;103220.09;4950717;28;20050;-55
2022/03/17 10:46:03;;;;;;;8.77;3.05;;;;;;;15.13;45.88;103224.00;4960240;28;20050;-50
2022/03/17 10:48:29;;;;;;;13.43;3.05;;;;;;;15.10;45.03;103226.56;4936661;28;20129;-53
2022/03/17 10:50:55;;;;;;;7.10;2.55;;;;;;;15.06;45.94;103224.69;4964506;28;20127;-55
2022/03/17 10:53:27;;;;;;;8.60;2.80;;;;;;;15.20;45.34;103234.78;4959112;28;20419;-51
2022/03/17 10:56:08;;;;;;;10.60;3.05;;;;;;;15.20;45.34;103234.78;4943051;28;20454;-54
2022/03/17 10:58:42;;;;;;;11.98;3.17;;;;;;;15.26;45.62;103242.84;4943207;28;20038;-53
2022/03/17 11:01:07;;;;;;;8.13;2.55;;;;;;;15.39;45.31;103242.41;4961526;28;20105;-53
2022/03/17 11:03:33;;;;;;;7.97;2.63;;;;;;;15.18;44.75;103248.72;4960711;28;20154;-52
2022/03/17 11:05:58;;;;;;;9.88;2.97;;;;;;;15.16;46.41;103250.41;4965389;28;20042;-52
2022/03/17 11:08:25;;;;;;;10.95;3.00;;;;;;;15.21;46.11;103248.81;4948938;28;20177;-55
2022/03/17 11:10:51;;;;;;;7.10;2.50;;;;;;;15.43;44.57;103246.00;4959343;28;20502;-51
2022/03/17 11:13:16;;;;;;;12.05;2.67;;;;;;;15.40;43.77;103241.56;4959938;28;20093;-53
2022/03/17 11:15:45;;;;;;;9.48;2.60;;;;;;;15.42;44.00;103253.03;4960269;28;20042;-51
2022/03/17 11:18:17;;;;;;;7.85;2.30;;;;;;;15.48;43.39;103252.31;4965732;28;20042;-51
2022/03/17 11:20:42;;;;;;;10.23;2.13;;;;;;;15.37;43.82;103251.97;4952833;28;20077;-52
2022/03/17 11:23:19;;;;;;;7.60;1.92;;;;;;;15.29;43.91;103250.84;4962981;28;20581;-51
2022/03/17 11:25:58;;;;;;;11.65;2.50;;;;;;;15.13;43.91;103256.44;4953196;28;20046;-50
2022/03/17 11:28:39;;;;;;;8.88;2.22;;;;;;;15.04;45.33;103264.03;4954811;28;20620;-51